Time;durP1;ratioP1;P1;durP2;ratioP2;P2;SDS_P1;SDS_P2;PMS_P1;PMS_P2;Temp;Humidity;BMP_temperature;BMP_pressure;BME280_temperature;BME280_humidity;BME280_pressure;Samples;Min_cycle;Max_cycle;Signal;HPM_P1;HPM_P2
2023/07/24 00:02:11;;;;;;;8.10;6.70;;;;;;;20.90;55.28;98265.93;135773;1274;22536;-82
2023/07/24 00:05:14;;;;;;;15.70;7.10;;;;;;;20.68;55.76;98265.52;135728;1275;22679;-82
2023/07/24 00:08:16;;;;;;;12.90;6.90;;;;;;;20.52;56.56;98264.18;135699;1274;22542;-84
2023/07/24 00:11:19;;;;;;;11.40;6.70;;;;;;;20.38;56.91;98266.27;135645;1275;22529;-83
2023/07/24 00:14:21;;;;;;;129.60;16.60;;;;;;;20.26;57.59;98263.69;135675;1275;22548;-80
2023/07/24 00:17:24;;;;;;;11.80;7.10;;;;;;;20.19;58.49;98260.08;135704;1275;22541;-82
2023/07/24 00:20:26;;;;;;;11.60;6.90;;;;;;;20.12;59.00;98260.17;135742;1275;22554;-82
2023/07/24 00:23:29;;;;;;;8.70;6.90;;;;;;;20.04;59.90;98259.71;135700;1275;23255;-82
2023/07/24 00:26:31;;;;;;;40.70;8.80;;;;;;;19.98;60.06;98258.54;135807;1275;22572;-82
2023/07/24 00:29:33;;;;;;;15.40;6.50;;;;;;;19.92;60.29;98255.70;135687;1274;22573;-82
2023/07/24 00:32:36;;;;;;;10.90;7.00;;;;;;;19.86;61.11;98254.49;135721;1275;22549;-83
2023/07/24 00:35:39;;;;;;;10.90;6.50;;;;;;;19.78;61.53;98253.73;135717;1275;25049;-81
2023/07/24 00:38:41;;;;;;;10.00;7.10;;;;;;;19.72;61.95;98248.11;135699;1275;22544;-82
2023/07/24 00:41:43;;;;;;;9.80;6.90;;;;;;;19.66;62.19;98240.90;135697;1275;22529;-83
2023/07/24 00:44:46;;;;;;;9.20;7.30;;;;;;;19.63;62.36;98243.45;135636;1275;22537;-83
2023/07/24 00:47:48;;;;;;;10.10;6.80;;;;;;;19.62;62.49;98242.26;135653;1274;22639;-83
2023/07/24 00:50:51;;;;;;;12.00;6.80;;;;;;;19.64;62.53;98238.14;135614;1275;25319;-83
2023/07/24 00:53:53;;;;;;;10.20;6.80;;;;;;;19.66;62.55;98237.55;135650;1275;22534;-84
2023/07/24 00:56:56;;;;;;;11.40;6.50;;;;;;;19.72;62.50;98234.85;135673;1275;22537;-84
2023/07/24 00:59:58;;;;;;;7.90;6.10;;;;;;;19.82;62.06;98234.52;135665;1274;22561;-83
2023/07/24 01:03:01;;;;;;;8.60;6.40;;;;;;;19.91;61.28;98229.95;135551;1275;22473;-81
2023/07/24 01:06:03;;;;;;;8.50;6.10;;;;;;;20.03;60.60;98226.55;135567;1275;22714;-81
2023/07/24 01:09:06;;;;;;;9.50;6.20;;;;;;;20.15;60.47;98226.64;135600;1274;22559;-84
2023/07/24 01:12:08;;;;;;;8.40;6.30;;;;;;;20.24;60.25;98224.02;135571;1275;22540;-84
2023/07/24 01:15:11;;;;;;;11.20;6.00;;;;;;;20.30;60.03;98220.06;135615;1274;22568;-84
2023/07/24 01:18:14;;;;;;;8.70;6.00;;;;;;;20.36;59.96;98219.14;135567;1274;22596;-80
2023/07/24 01:21:16;;;;;;;9.10;6.00;;;;;;;20.41;59.62;98222.17;135631;1274;22550;-83
2023/07/24 01:24:21;;;;;;;8.80;5.70;;;;;;;20.46;59.49;98222.19;135575;1275;22559;-82
2023/07/24 01:27:23;;;;;;;7.60;5.90;;;;;;;20.49;59.49;98227.53;135634;1274;22583;-83
2023/07/24 01:30:26;;;;;;;8.50;6.30;;;;;;;20.50;59.45;98228.20;135708;1271;22541;-84
2023/07/24 01:33:28;;;;;;;8.20;5.50;;;;;;;20.52;59.36;98226.02;135675;1275;22528;-84
2023/07/24 01:36:31;;;;;;;9.70;5.90;;;;;;;20.54;59.28;98224.35;135676;1275;22544;-84
2023/07/24 01:39:33;;;;;;;7.30;5.70;;;;;;;20.55;59.14;98220.77;135646;1275;22622;-83
2023/07/24 01:42:36;;;;;;;9.80;6.10;;;;;;;20.56;59.16;98217.91;135680;1274;22640;-83
2023/07/24 01:45:38;;;;;;;7.40;5.80;;;;;;;20.56;59.22;98224.07;135705;1274;25401;-83
2023/07/24 01:48:41;;;;;;;7.30;5.90;;;;;;;20.55;59.29;98225.18;135659;1275;22552;-82
2023/07/24 01:51:43;;;;;;;6.20;5.60;;;;;;;20.53;59.39;98226.16;135647;1275;22637;-82
2023/07/24 01:54:46;;;;;;;13.60;5.90;;;;;;;20.50;59.52;98223.80;135701;1275;22550;-82
2023/07/24 01:57:49;;;;;;;6.50;5.60;;;;;;;20.46;59.61;98220.05;135629;1274;22565;-84
2023/07/24 02:00:51;;;;;;;6.10;5.50;;;;;;;20.42;59.64;98218.96;135644;1275;22541;-81
2023/07/24 02:03:53;;;;;;;8.40;5.70;;;;;;;20.38;59.76;98215.58;135611;1274;22997;-82
2023/07/24 02:06:56;;;;;;;5.90;5.20;;;;;;;20.34;59.68;98215.69;135637;1274;22549;-82
2023/07/24 02:09:59;;;;;;;10.00;6.00;;;;;;;20.29;59.86;98216.59;135611;1274;22528;-83
2023/07/24 02:13:02;;;;;;;14.70;5.90;;;;;;;20.23;59.83;98211.33;135659;1274;22631;-83
2023/07/24 02:16:05;;;;;;;7.80;6.10;;;;;;;20.17;60.01;98211.20;135637;1275;22537;-82
2023/07/24 02:19:08;;;;;;;7.40;5.50;;;;;;;20.11;60.24;98208.06;135562;1275;22538;-82
2023/07/24 02:22:11;;;;;;;6.60;5.50;;;;;;;20.03;60.62;98207.83;135486;1275;22534;-83
2023/07/24 02:25:13;;;;;;;8.30;5.90;;;;;;;19.94;60.95;98206.37;135575;1275;24212;-83
2023/07/24 02:28:15;;;;;;;14.00;6.30;;;;;;;19.84;61.25;98207.26;135550;1269;22552;-83
2023/07/24 02:31:18;;;;;;;6.30;5.70;;;;;;;19.76;61.75;98208.79;135510;1275;22540;-83
2023/07/24 02:34:24;;;;;;;8.90;6.40;;;;;;;19.66;61.86;98207.00;135534;1275;22530;-83
2023/07/24 02:37:26;;;;;;;8.30;5.90;;;;;;;19.56;62.44;98210.19;135573;1275;22550;-82
2023/07/24 02:40:29;;;;;;;55.60;10.30;;;;;;;19.43;63.15;98207.96;135619;1275;22547;-80
2023/07/24 02:43:31;;;;;;;15.50;6.40;;;;;;;19.29;63.53;98208.77;135599;1272;22545;-79
2023/07/24 02:46:34;;;;;;;9.50;6.10;;;;;;;19.20;63.93;98214.00;135412;1275;22534;-81
2023/07/24 02:49:36;;;;;;;7.80;6.10;;;;;;;19.16;64.13;98213.09;135600;1275;25242;-81
2023/07/24 02:52:39;;;;;;;8.40;5.90;;;;;;;19.11;64.40;98210.77;135578;1275;22567;-82
2023/07/24 02:55:41;;;;;;;8.60;6.10;;;;;;;19.05;64.70;98206.55;135598;1275;24350;-80
2023/07/24 02:58:44;;;;;;;8.40;6.20;;;;;;;18.97;65.00;98208.91;135560;1275;22492;-80
2023/07/24 03:01:46;;;;;;;8.60;5.90;;;;;;;18.89;65.37;98209.52;135573;1275;22645;-82
2023/07/24 03:04:49;;;;;;;12.80;7.10;;;;;;;18.81;65.76;98204.48;135541;1276;22574;-83
2023/07/24 03:07:51;;;;;;;13.30;6.40;;;;;;;18.74;66.28;98202.40;135557;1275;22654;-80
2023/07/24 03:10:53;;;;;;;31.90;7.90;;;;;;;18.68;66.50;98196.79;135681;1276;22561;-82
2023/07/24 03:13:56;;;;;;;27.10;7.90;;;;;;;18.63;66.83;98194.83;135759;1275;22738;-81
2023/07/24 03:16:59;;;;;;;17.40;7.50;;;;;;;18.61;67.09;98193.11;136404;1274;22475;-81
2023/07/24 03:20:01;;;;;;;19.00;7.50;;;;;;;18.59;67.45;98193.85;136490;1274;22580;-81
2023/07/24 03:23:04;;;;;;;8.60;6.90;;;;;;;18.56;68.12;98196.41;136522;1274;22646;-82
2023/07/24 03:26:09;;;;;;;81.40;10.00;;;;;;;18.53;68.36;98192.80;136568;1275;22641;-81
2023/07/24 03:29:12;;;;;;;15.40;6.20;;;;;;;18.50;68.73;98194.30;136583;1254;22546;-82
2023/07/24 03:32:14;;;;;;;15.90;6.40;;;;;;;18.49;69.17;98193.30;136171;1274;22981;-83
2023/07/24 03:35:17;;;;;;;17.00;6.20;;;;;;;18.49;69.50;98195.39;136272;1275;22558;-83
2023/07/24 03:38:19;;;;;;;18.30;6.70;;;;;;;18.48;69.87;98195.26;136537;1275;22136;-83
2023/07/24 03:41:23;;;;;;;11.60;6.30;;;;;;;18.46;70.19;98195.66;136128;1274;22592;-83
2023/07/24 03:44:28;;;;;;;8.80;6.50;;;;;;;18.42;70.42;98197.70;135824;1274;24857;-82
2023/07/24 03:47:31;;;;;;;39.60;8.00;;;;;;;18.36;71.00;98199.80;135770;1268;22577;-83
2023/07/24 03:50:34;;;;;;;15.80;6.10;;;;;;;18.33;71.78;98200.61;135770;1274;22536;-83
2023/07/24 03:53:36;;;;;;;7.30;6.30;;;;;;;18.33;72.39;98201.49;135875;1274;24700;-81
2023/07/24 03:56:39;;;;;;;54.10;9.90;;;;;;;18.36;72.62;98200.72;136080;1275;25323;-80
2023/07/24 03:59:42;;;;;;;16.50;7.00;;;;;;;18.40;72.94;98204.10;135899;1275;22558;-82
2023/07/24 04:02:48;;;;;;;89.30;10.90;;;;;;;18.49;73.85;98204.73;136191;1274;22570;-83
2023/07/24 04:05:53;;;;;;;15.00;6.70;;;;;;;19.26;75.22;98209.20;136360;1272;22554;-84
2023/07/24 04:08:55;;;;;;;16.60;6.90;;;;;;;20.01;73.03;98207.88;136140;1275;22562;-84
2023/07/24 04:11:58;;;;;;;9.90;6.50;;;;;;;20.53;71.09;98207.73;136345;1274;22550;-84
2023/07/24 04:15:00;;;;;;;10.10;6.50;;;;;;;20.88;69.89;98207.31;136124;1275;22584;-83
2023/07/24 04:18:03;;;;;;;25.80;7.70;;;;;;;21.26;68.62;98208.23;136089;1269;22580;-84
2023/07/24 04:21:05;;;;;;;14.10;6.70;;;;;;;21.59;67.55;98204.55;136109;1275;22569;-82
2023/07/24 04:24:08;;;;;;;8.80;6.50;;;;;;;21.97;66.64;98208.29;136216;1269;23148;-83
2023/07/24 04:27:10;;;;;;;7.10;6.20;;;;;;;22.16;65.98;98211.71;136137;1275;22533;-81
2023/07/24 04:30:13;;;;;;;18.90;7.30;;;;;;;22.34;65.21;98207.35;135224;1269;22552;-83
2023/07/24 04:33:15;;;;;;;8.20;6.10;;;;;;;22.46;64.71;98203.58;136200;1275;23425;-80
2023/07/24 04:36:18;;;;;;;7.60;6.30;;;;;;;22.62;64.49;98203.59;135009;1275;22521;-82
2023/07/24 04:39:20;;;;;;;15.60;6.70;;;;;;;22.62;64.18;98203.22;136422;1274;22590;-83
2023/07/24 04:42:23;;;;;;;11.70;6.10;;;;;;;22.70;64.37;98203.17;136429;1275;22552;-83
2023/07/24 04:45:26;;;;;;;26.90;7.50;;;;;;;22.81;64.32;98207.30;136294;1275;22662;-83
2023/07/24 04:48:28;;;;;;;14.00;6.90;;;;;;;22.96;63.79;98206.10;136359;1263;22539;-82
2023/07/24 04:51:31;;;;;;;55.30;9.00;;;;;;;23.28;62.49;98205.73;136070;1274;22688;-82
2023/07/24 04:54:33;;;;;;;22.80;7.80;;;;;;;23.60;61.52;98198.86;136188;1274;25292;-82
2023/07/24 04:57:36;;;;;;;18.80;7.20;;;;;;;23.83;60.95;98191.63;136226;1275;22544;-83
2023/07/24 05:00:38;;;;;;;9.80;6.20;;;;;;;24.03;60.71;98189.17;136261;1275;22598;-83
2023/07/24 05:03:41;;;;;;;13.10;6.20;;;;;;;23.97;60.80;98193.37;136310;1275;22543;-85
2023/07/24 05:06:43;;;;;;;17.00;6.60;;;;;;;23.89;61.42;98192.55;136398;1275;24215;-83
2023/07/24 05:09:46;;;;;;;15.00;7.00;;;;;;;23.95;61.68;98189.92;136396;1256;22538;-80
2023/07/24 05:12:48;;;;;;;24.90;7.30;;;;;;;24.15;60.62;98192.60;135135;1274;22536;-80
2023/07/24 05:15:51;;;;;;;8.50;6.80;;;;;;;24.41;60.37;98190.21;135203;1275;22554;-80
2023/07/24 05:18:54;;;;;;;10.30;6.50;;;;;;;24.68;60.53;98191.20;136120;1275;22537;-76
2023/07/24 05:21:56;;;;;;;43.70;9.70;;;;;;;24.85;60.22;98197.55;135165;1275;22542;-78
2023/07/24 05:24:58;;;;;;;18.90;6.90;;;;;;;25.09;59.47;98194.79;135172;1274;24738;-78
2023/07/24 05:28:01;;;;;;;13.10;6.60;;;;;;;25.05;58.15;98200.67;135172;1275;22691;-79
2023/07/24 05:31:03;;;;;;;8.10;6.20;;;;;;;24.89;57.03;98200.70;135304;1275;22562;-79
2023/07/24 05:34:06;;;;;;;14.00;6.60;;;;;;;24.62;56.79;98204.53;135149;1275;22546;-82
2023/07/24 05:37:09;;;;;;;9.90;6.40;;;;;;;24.43;57.40;98203.43;136315;1275;22621;-83
2023/07/24 05:40:12;;;;;;;24.50;7.30;;;;;;;24.63;58.25;98201.45;136235;1275;22587;-81
2023/07/24 05:43:14;;;;;;;12.10;6.20;;;;;;;25.05;57.38;98196.98;136243;1274;22530;-81
2023/07/24 05:46:17;;;;;;;22.20;7.50;;;;;;;25.28;55.84;98203.30;136247;1275;22551;-82
2023/07/24 05:49:19;;;;;;;11.70;6.20;;;;;;;25.41;55.31;98205.93;136308;1275;25401;-81
2023/07/24 05:52:22;;;;;;;37.30;8.10;;;;;;;25.62;54.80;98202.21;136373;1274;22583;-79
2023/07/24 05:55:24;;;;;;;14.60;6.00;;;;;;;25.77;54.15;98203.48;135046;1274;23383;-80
2023/07/24 05:58:27;;;;;;;18.60;6.50;;;;;;;25.80;53.31;98198.16;135100;1274;22902;-79
2023/07/24 06:01:30;;;;;;;16.20;6.30;;;;;;;25.86;53.53;98193.69;134970;1275;22561;-79
2023/07/24 06:04:32;;;;;;;12.10;6.30;;;;;;;26.08;53.05;98195.01;134886;1274;23045;-80
2023/07/24 06:07:35;;;;;;;10.90;7.20;;;;;;;26.26;53.19;98190.56;134914;1274;22643;-80
2023/07/24 06:10:37;;;;;;;59.10;9.20;;;;;;;26.55;52.64;98194.77;134940;1272;24660;-82
2023/07/24 06:13:40;;;;;;;13.00;6.50;;;;;;;26.67;51.98;98190.84;134975;1274;22540;-83
2023/07/24 06:16:43;;;;;;;85.10;12.30;;;;;;;26.47;52.04;98189.21;134924;1274;22542;-81
2023/07/24 06:19:45;;;;;;;14.70;7.20;;;;;;;26.49;52.53;98186.95;134816;1274;22534;-80
2023/07/24 06:22:48;;;;;;;8.70;6.60;;;;;;;26.39;52.56;98189.40;136604;1274;23056;-80
2023/07/24 06:25:51;;;;;;;10.70;6.60;;;;;;;26.09;52.99;98189.10;136623;1274;22582;-81
2023/07/24 06:28:54;;;;;;;;;;;;;;;26.01;53.46;98184.55;136540;1274;22605;-81
2023/07/24 06:31:56;;;;;;;9.30;6.40;;;;;;;26.08;53.75;98181.84;135121;1275;22614;-81
2023/07/24 06:34:59;;;;;;;11.20;6.10;;;;;;;26.21;53.50;98175.35;136400;1275;23335;-81
2023/07/24 06:38:02;;;;;;;7.90;6.30;;;;;;;26.28;53.19;98172.58;136621;1275;22564;-80
2023/07/24 06:41:04;;;;;;;10.30;6.90;;;;;;;26.23;53.04;98174.51;136746;1274;24204;-81
2023/07/24 06:44:07;;;;;;;10.40;5.90;;;;;;;26.17;53.56;98174.14;136755;1263;22570;-82
2023/07/24 06:47:09;;;;;;;11.90;5.80;;;;;;;26.37;53.19;98170.83;136600;1275;22600;-78
2023/07/24 06:50:12;;;;;;;9.30;5.90;;;;;;;26.39;52.55;98165.65;135176;1274;22523;-80
2023/07/24 06:53:14;;;;;;;13.20;6.10;;;;;;;26.47;51.87;98166.58;135087;1275;22629;-81
2023/07/24 06:56:17;;;;;;;11.60;6.60;;;;;;;26.51;51.79;98172.92;134982;1274;22693;-82
2023/07/24 06:59:19;;;;;;;6.60;5.70;;;;;;;26.61;51.29;98179.26;136746;1275;22987;-79
2023/07/24 07:02:22;;;;;;;129.00;14.20;;;;;;;26.68;49.83;98173.27;135105;1275;22531;-81
2023/07/24 07:05:24;;;;;;;10.30;6.70;;;;;;;26.78;49.27;98171.41;135308;1275;23116;-81
2023/07/24 07:08:27;;;;;;;10.90;6.50;;;;;;;26.73;49.75;98164.52;136484;1274;22571;-82
2023/07/24 07:11:30;;;;;;;7.70;6.20;;;;;;;26.89;49.81;98162.98;136185;1272;22576;-82
2023/07/24 07:14:32;;;;;;;6.40;5.70;;;;;;;27.18;48.81;98158.47;136214;1274;22543;-81
2023/07/24 07:17:35;;;;;;;7.20;5.60;;;;;;;27.24;47.64;98156.27;136175;1275;25289;-80
2023/07/24 07:20:37;;;;;;;12.80;6.10;;;;;;;27.25;47.45;98154.41;135417;1274;22482;-80
2023/07/24 07:23:40;;;;;;;10.10;6.30;;;;;;;27.22;47.87;98159.76;136288;1274;22591;-81
2023/07/24 07:26:44;;;;;;;10.10;5.80;;;;;;;27.23;47.41;98158.44;136011;1274;22520;-81
2023/07/24 07:29:47;;;;;;;8.60;6.10;;;;;;;27.30;46.99;98151.57;136033;1275;22543;-83
2023/07/24 07:32:49;;;;;;;22.20;6.80;;;;;;;27.49;47.08;98148.69;136217;1275;22515;-84
2023/07/24 07:35:52;;;;;;;12.20;6.30;;;;;;;27.70;46.92;98147.30;136339;1274;22763;-83
2023/07/24 07:38:54;;;;;;;19.10;7.10;;;;;;;27.87;46.89;98150.43;136182;1274;22507;-82
2023/07/24 07:41:57;;;;;;;11.10;6.60;;;;;;;28.00;46.81;98149.49;136463;1275;22541;-81
2023/07/24 07:44:59;;;;;;;13.30;6.60;;;;;;;28.24;46.00;98149.07;136081;1275;22554;-78
2023/07/24 07:48:02;;;;;;;13.20;6.70;;;;;;;28.36;44.57;98151.42;135153;1275;22779;-84
2023/07/24 07:51:04;;;;;;;9.10;6.00;;;;;;;28.58;44.85;98148.23;136271;1275;22514;-85
2023/07/24 07:54:07;;;;;;;11.40;6.00;;;;;;;28.81;44.16;98148.74;136473;1275;24280;-81
2023/07/24 07:57:09;;;;;;;13.40;5.90;;;;;;;28.65;42.38;98148.68;136165;1274;23097;-84
2023/07/24 08:00:12;;;;;;;10.80;6.70;;;;;;;28.47;42.76;98138.27;136082;1275;22528;-81
2023/07/24 08:03:14;;;;;;;9.20;6.60;;;;;;;28.64;42.88;98130.52;136154;1272;22961;-80
2023/07/24 08:06:17;;;;;;;12.80;6.00;;;;;;;28.60;43.33;98134.50;136149;1274;22569;-82
2023/07/24 08:09:21;;;;;;;5.90;5.30;;;;;;;28.79;43.10;98129.91;136207;1275;22559;-82
2023/07/24 08:12:24;;;;;;;6.70;5.70;;;;;;;28.99;42.23;98122.94;136292;1275;22560;-84
2023/07/24 08:15:30;;;;;;;11.90;6.00;;;;;;;29.14;42.59;98127.14;136316;1275;22559;-81
2023/07/24 08:18:35;;;;;;;9.40;5.70;;;;;;;29.37;41.61;98121.09;136218;1275;22552;-81
2023/07/24 08:21:38;;;;;;;10.50;6.00;;;;;;;29.50;40.65;98121.27;136230;1274;22603;-81
2023/07/24 08:24:42;;;;;;;7.70;6.10;;;;;;;29.64;40.43;98120.52;136219;1274;22572;-82
2023/07/24 08:27:45;;;;;;;8.10;5.40;;;;;;;29.68;39.35;98116.58;136251;1274;23047;-81
2023/07/24 08:30:48;;;;;;;9.10;5.30;;;;;;;29.92;38.78;98117.47;136287;1274;22573;-82
2023/07/24 08:33:50;;;;;;;6.10;5.50;;;;;;;29.97;36.69;98118.08;136282;1275;23346;-83
2023/07/24 08:36:54;;;;;;;10.00;5.60;;;;;;;30.00;37.22;98120.42;136640;1274;22540;-81
2023/07/24 08:39:56;;;;;;;14.00;5.40;;;;;;;30.18;37.14;98118.65;136857;1274;22572;-81
2023/07/24 08:42:59;;;;;;;8.10;5.70;;;;;;;30.34;37.27;98113.55;136859;1275;22596;-81
2023/07/24 08:46:01;;;;;;;8.10;5.50;;;;;;;30.48;36.19;98115.52;136905;1275;22677;-80
2023/07/24 08:49:04;;;;;;;9.00;5.50;;;;;;;30.57;35.04;98115.12;136817;1275;22154;-81
2023/07/24 08:52:06;;;;;;;22.60;6.90;;;;;;;30.59;34.11;98115.91;136960;1274;22519;-80
2023/07/24 08:55:09;;;;;;;12.20;5.40;;;;;;;30.44;33.89;98112.41;136996;1267;22588;-81
2023/07/24 08:58:11;;;;;;;6.50;5.50;;;;;;;30.37;33.74;98115.15;136874;1267;22561;-82
2023/07/24 09:01:14;;;;;;;6.50;5.20;;;;;;;30.21;34.06;98107.45;136832;1275;22548;-81
2023/07/24 09:04:17;;;;;;;7.60;5.90;;;;;;;30.09;34.40;98104.31;136774;1274;22541;-82
2023/07/24 09:07:20;;;;;;;5.90;5.30;;;;;;;29.99;34.37;98099.50;136812;1274;23322;-83
2023/07/24 09:10:22;;;;;;;6.60;5.60;;;;;;;29.94;34.49;98090.42;136480;1275;22529;-80
2023/07/24 09:13:25;;;;;;;10.10;5.30;;;;;;;29.95;33.93;98088.33;136707;1274;22565;-82
2023/07/24 09:16:27;;;;;;;16.60;5.90;;;;;;;30.08;34.13;98089.31;136456;1274;22557;-83
2023/07/24 09:19:30;;;;;;;10.80;6.10;;;;;;;30.24;34.31;98088.19;136290;1274;22563;-80
2023/07/24 09:22:32;;;;;;;8.90;6.10;;;;;;;30.21;34.18;98091.32;136352;1274;22570;-80
2023/07/24 09:25:35;;;;;;;8.00;6.50;;;;;;;30.00;34.86;98093.16;136497;1275;22567;-81
2023/07/24 09:28:37;;;;;;;19.60;6.10;;;;;;;29.97;35.79;98091.19;136505;1275;22520;-82
2023/07/24 09:31:40;;;;;;;14.20;5.90;;;;;;;29.96;34.73;98093.63;136653;1274;22586;-82
2023/07/24 09:34:42;;;;;;;10.10;5.40;;;;;;;29.76;34.58;98086.91;136600;1275;22560;-83
2023/07/24 09:37:45;;;;;;;10.50;6.20;;;;;;;29.72;34.53;98077.02;136241;1275;22534;-82
2023/07/24 09:40:50;;;;;;;11.00;6.10;;;;;;;29.75;34.94;98076.41;136299;1275;22537;-81
2023/07/24 09:43:52;;;;;;;17.90;6.90;;;;;;;29.96;35.25;98066.34;136348;1275;22548;-82
2023/07/24 09:46:54;;;;;;;11.50;6.20;;;;;;;30.06;35.72;98058.73;136280;1275;22534;-80
2023/07/24 09:49:57;;;;;;;8.70;6.10;;;;;;;30.05;35.33;98061.73;136593;1275;22514;-81
2023/07/24 09:53:00;;;;;;;12.20;6.20;;;;;;;30.24;35.15;98058.52;136482;1275;22540;-80
2023/07/24 09:56:02;;;;;;;8.90;6.40;;;;;;;30.50;34.68;98059.52;136587;1268;22615;-82
2023/07/24 09:59:05;;;;;;;13.10;6.30;;;;;;;30.56;34.74;98055.11;136460;1274;22541;-83
2023/07/24 10:02:08;;;;;;;14.70;6.30;;;;;;;30.53;34.24;98051.42;136665;1275;22514;-81
2023/07/24 10:05:11;;;;;;;9.90;6.50;;;;;;;30.41;34.03;98042.12;136542;1274;22582;-83
2023/07/24 10:08:13;;;;;;;13.70;6.20;;;;;;;30.59;32.38;98034.95;136231;1274;23352;-84
2023/07/24 10:11:16;;;;;;;6.80;6.10;;;;;;;30.78;32.27;98044.82;136253;1274;22527;-84
2023/07/24 10:14:19;;;;;;;11.90;6.40;;;;;;;30.50;31.91;98039.55;136349;1274;22533;-83
2023/07/24 10:17:24;;;;;;;18.40;6.70;;;;;;;30.21;31.53;98037.10;136351;1275;22599;-84
2023/07/24 10:20:27;;;;;;;14.50;7.10;;;;;;;29.73;31.74;98035.90;136495;1267;22531;-83
2023/07/24 10:23:29;;;;;;;7.80;7.00;;;;;;;29.32;31.63;98029.21;136361;1274;22598;-83
2023/07/24 10:26:32;;;;;;;9.20;6.30;;;;;;;29.35;32.86;98030.95;136284;1270;22617;-84
2023/07/24 10:29:34;;;;;;;8.80;7.10;;;;;;;29.42;32.02;98024.81;136817;1275;22551;-82
2023/07/24 10:32:37;;;;;;;8.10;6.70;;;;;;;29.42;32.92;98019.64;136607;1275;22618;-82
2023/07/24 10:35:40;;;;;;;12.00;7.40;;;;;;;29.55;33.38;98015.65;136423;1274;22551;-81
2023/07/24 10:38:50;;;;;;;13.20;7.30;;;;;;;29.41;33.05;98003.78;136395;1274;22568;-86
2023/07/24 10:41:53;;;;;;;9.00;6.90;;;;;;;29.41;33.68;98003.56;136173;1274;25913;-84
2023/07/24 10:44:56;;;;;;;11.60;7.50;;;;;;;29.18;34.38;98004.27;136455;1275;22867;-86
2023/07/24 10:48:07;;;;;;;9.60;7.30;;;;;;;29.60;35.51;98006.94;136561;1274;23010;-84
2023/07/24 10:51:14;;;;;;;8.90;6.80;;;;;;;30.25;34.54;98003.97;136518;1275;22556;-83
2023/07/24 10:54:19;;;;;;;9.90;7.40;;;;;;;30.72;33.63;97994.56;136374;1274;22566;-83
2023/07/24 10:57:22;;;;;;;15.00;7.70;;;;;;;30.34;32.14;97990.46;136421;1251;25938;-83
2023/07/24 11:00:30;;;;;;;13.50;7.50;;;;;;;30.16;33.48;97988.68;136368;1274;22515;-83
2023/07/24 11:03:34;;;;;;;14.80;8.10;;;;;;;30.01;32.29;97986.48;136035;1260;24848;-83
2023/07/24 11:06:36;;;;;;;10.20;7.50;;;;;;;29.95;33.23;97995.04;136166;1275;22552;-83
2023/07/24 11:09:40;;;;;;;10.60;7.20;;;;;;;30.29;34.54;97984.97;136370;1274;23193;-83
2023/07/24 11:12:42;;;;;;;20.80;9.10;;;;;;;30.47;33.71;97982.60;136456;1274;22561;-83
2023/07/24 11:15:45;;;;;;;14.50;8.00;;;;;;;30.33;33.37;97973.52;136327;1275;22541;-84
2023/07/24 11:18:48;;;;;;;10.80;7.40;;;;;;;30.41;32.74;97961.88;136194;1274;23158;-83
2023/07/24 11:21:53;;;;;;;17.40;9.00;;;;;;;30.42;32.62;97959.30;136208;1274;22558;-84
2023/07/24 11:24:56;;;;;;;20.10;8.50;;;;;;;30.39;33.17;97950.75;136204;1274;22548;-83
2023/07/24 11:27:58;;;;;;;12.50;9.00;;;;;;;30.39;33.31;97945.70;136169;1264;22518;-84
2023/07/24 11:31:01;;;;;;;12.50;8.10;;;;;;;30.53;32.71;97948.00;135979;1274;393256;-83
2023/07/24 11:34:04;;;;;;;22.10;8.00;;;;;;;30.08;33.13;97963.19;136402;1274;22536;-83
2023/07/24 11:37:06;;;;;;;10.90;8.30;;;;;;;29.70;33.89;97954.91;136551;1274;22636;-83
2023/07/24 11:40:10;;;;;;;19.00;8.90;;;;;;;29.62;34.01;97949.08;136634;1274;22689;-83
2023/07/24 11:43:13;;;;;;;12.30;8.60;;;;;;;29.64;33.59;97934.40;136433;1274;22590;-83
2023/07/24 11:46:16;;;;;;;;;;;;;;;29.65;32.95;97936.67;136560;1275;22539;-81
2023/07/24 11:49:18;;;;;;;16.10;8.80;;;;;;;29.80;33.13;97945.87;136191;1274;23658;-82
2023/07/24 11:52:21;;;;;;;9.20;8.00;;;;;;;30.13;32.71;97943.40;136380;1273;22914;-82
2023/07/24 11:55:23;;;;;;;9.10;7.90;;;;;;;30.07;33.31;97949.20;136409;1274;22531;-82
2023/07/24 11:58:26;;;;;;;23.10;9.10;;;;;;;29.84;33.04;97967.23;136568;1274;22514;-81
2023/07/24 12:01:28;;;;;;;13.30;9.10;;;;;;;29.28;33.56;97973.23;136809;1274;22520;-84
2023/07/24 12:04:31;;;;;;;14.00;8.60;;;;;;;28.74;34.19;97982.41;136509;1274;22572;-83
2023/07/24 12:07:33;;;;;;;10.90;7.90;;;;;;;28.45;35.96;97986.48;136794;1274;22552;-84
2023/07/24 12:10:39;;;;;;;26.30;9.90;;;;;;;28.54;37.33;97987.98;136797;1271;22542;-84
2023/07/24 12:13:42;;;;;;;16.30;9.60;;;;;;;28.26;41.91;97991.70;136573;1263;22577;-83
2023/07/24 12:16:44;;;;;;;13.60;9.90;;;;;;;27.78;41.94;97977.09;136653;1274;22145;-81
2023/07/24 12:19:48;;;;;;;13.10;9.00;;;;;;;27.77;43.80;97965.88;137040;1274;22531;-80
2023/07/24 12:22:51;;;;;;;11.50;9.70;;;;;;;28.30;44.44;97951.84;136907;1274;22600;-81
2023/07/24 12:25:53;;;;;;;11.90;8.80;;;;;;;29.03;45.25;97944.74;136797;1274;22582;-81
2023/07/24 12:28:56;;;;;;;12.40;8.20;;;;;;;29.67;44.75;97941.55;136909;1275;22557;-80
2023/07/24 12:31:59;;;;;;;11.70;9.10;;;;;;;30.04;42.53;97939.59;136999;1275;22335;-82
2023/07/24 12:35:02;;;;;;;9.60;8.60;;;;;;;30.27;41.13;97935.38;137019;1275;22587;-82
2023/07/24 12:38:08;;;;;;;10.80;8.10;;;;;;;30.55;40.72;97929.30;136652;1274;22554;-82
2023/07/24 12:41:10;;;;;;;9.60;8.30;;;;;;;30.77;38.39;97921.21;136488;1274;22503;-82
2023/07/24 12:44:13;;;;;;;9.70;8.60;;;;;;;30.97;37.69;97912.46;136649;1274;22197;-80
2023/07/24 12:47:17;;;;;;;8.90;8.10;;;;;;;31.41;37.34;97912.23;136548;1275;24224;-81
2023/07/24 12:50:20;;;;;;;11.10;7.80;;;;;;;31.89;36.50;97906.91;136245;1275;22640;-80
2023/07/24 12:53:22;;;;;;;9.10;8.20;;;;;;;32.21;35.66;97898.09;136318;1274;22567;-81
2023/07/24 12:56:25;;;;;;;8.60;7.80;;;;;;;32.54;35.13;97894.24;136212;1274;22592;-80
2023/07/24 12:59:27;;;;;;;10.30;8.70;;;;;;;32.82;35.16;97885.14;136441;1275;22552;-80
2023/07/24 13:02:31;;;;;;;11.50;8.10;;;;;;;33.06;33.66;97879.02;136453;1274;22521;-81
2023/07/24 13:05:34;;;;;;;8.80;7.90;;;;;;;33.10;33.31;97875.81;136576;1274;22547;-81
2023/07/24 13:08:36;;;;;;;12.10;8.90;;;;;;;32.78;33.13;97874.45;136331;1275;22543;-82
2023/07/24 13:11:40;;;;;;;10.20;8.20;;;;;;;32.54;32.68;97875.45;136248;1274;22550;-80
2023/07/24 13:14:42;;;;;;;9.30;8.40;;;;;;;32.47;32.96;97871.77;136070;1275;22591;-81
2023/07/24 13:17:45;;;;;;;10.80;8.40;;;;;;;32.44;33.39;97865.98;136211;1274;22540;-81
2023/07/24 13:20:47;;;;;;;10.60;9.30;;;;;;;32.56;33.69;97863.90;136202;1274;22569;-81
2023/07/24 13:23:50;;;;;;;14.40;8.50;;;;;;;32.83;32.24;97862.67;136159;1274;22571;-83
2023/07/24 13:26:52;;;;;;;12.70;9.10;;;;;;;33.02;31.20;97862.33;136144;1274;22578;-85
2023/07/24 13:29:55;;;;;;;11.80;8.90;;;;;;;33.13;31.06;97851.14;136365;1274;22602;-84
2023/07/24 13:32:57;;;;;;;10.90;8.90;;;;;;;33.23;30.62;97843.05;136453;1274;22594;-84
2023/07/24 13:36:00;;;;;;;9.70;8.60;;;;;;;33.40;30.39;97843.66;136326;1272;22575;-84
2023/07/24 13:39:02;;;;;;;13.00;8.80;;;;;;;33.37;29.66;97831.20;136226;1274;23106;-85
2023/07/24 13:42:05;;;;;;;10.00;8.90;;;;;;;33.40;30.24;97824.42;136405;1267;22534;-84
2023/07/24 13:45:07;;;;;;;10.30;8.80;;;;;;;33.49;30.26;97823.86;136117;1274;23184;-83
2023/07/24 13:48:10;;;;;;;11.70;8.80;;;;;;;33.66;30.71;97820.44;136142;1274;22659;-83
2023/07/24 13:51:12;;;;;;;10.40;8.30;;;;;;;33.80;30.32;97822.98;136165;1274;22529;-84
2023/07/24 13:54:18;;;;;;;10.80;9.60;;;;;;;33.64;29.33;97822.20;136290;1274;22554;-85
2023/07/24 13:57:21;;;;;;;12.30;9.10;;;;;;;33.45;29.82;97818.36;136230;1274;22537;-84
2023/07/24 14:00:25;;;;;;;11.80;9.10;;;;;;;33.29;29.41;97805.27;136340;1274;22561;-84
2023/07/24 14:03:28;;;;;;;14.30;8.40;;;;;;;32.71;28.74;97801.13;136230;1274;22556;-84